createdAt,value
2023-02-24T04:46:08.065Z,5.90
2023-02-24T04:48:35.426Z,5.80
2023-02-24T04:51:02.515Z,5.80
2023-02-24T04:53:29.253Z,5.70
2023-02-24T04:55:56.427Z,5.50
2023-02-24T04:58:29.610Z,5.60
2023-02-24T05:00:56.509Z,5.70
2023-02-24T05:03:30.724Z,5.80
2023-02-24T05:06:02.510Z,5.80
2023-02-24T05:08:30.812Z,5.70
2023-02-24T05:10:58.556Z,5.80
2023-02-24T05:13:28.061Z,5.70
2023-02-24T05:15:56.583Z,5.70
2023-02-24T05:18:23.937Z,5.60
2023-02-24T05:21:12.739Z,5.60
2023-02-24T05:23:44.712Z,5.50
2023-02-24T05:26:17.591Z,5.40
2023-02-24T05:28:54.709Z,5.30
2023-02-24T05:31:26.169Z,5.40
2023-02-24T05:33:55.512Z,5.60
2023-02-24T05:36:22.498Z,5.60
2023-02-24T05:38:56.598Z,5.50
2023-02-24T05:41:32.272Z,5.50
2023-02-24T05:44:02.304Z,5.50
2023-02-24T05:46:33.583Z,5.50
2023-02-24T05:49:03.414Z,5.40
2023-02-24T05:51:36.227Z,5.40
2023-02-24T05:54:08.417Z,5.40
2023-02-24T05:56:38.690Z,5.40
2023-02-24T05:59:11.142Z,5.40
2023-02-24T06:01:45.728Z,5.30
2023-02-24T06:04:20.860Z,5.30
2023-02-24T06:06:52.575Z,5.30
2023-02-24T06:09:23.065Z,5.30
2023-02-24T06:11:50.313Z,5.30
2023-02-24T06:14:17.281Z,5.20
2023-02-24T06:16:44.015Z,5.10
2023-02-24T06:19:12.168Z,4.80
2023-02-24T06:21:41.362Z,4.80
2023-02-24T06:24:18.488Z,4.90
2023-02-24T06:26:46.430Z,4.80
2023-02-24T06:29:17.598Z,4.90
2023-02-24T06:31:44.934Z,4.80
2023-02-24T06:34:13.981Z,4.50
2023-02-24T06:36:43.508Z,4.60
2023-02-24T06:39:14.428Z,4.60
2023-02-24T06:41:42.549Z,4.70
2023-02-24T06:44:09.633Z,4.80
2023-02-24T06:46:37.034Z,4.90
2023-02-24T06:49:03.956Z,5.00
2023-02-24T06:51:30.567Z,4.90
2023-02-24T06:53:59.357Z,4.90
2023-02-24T06:56:27.418Z,4.90
2023-02-24T06:58:55.816Z,5.00
2023-02-24T07:01:29.048Z,5.20
2023-02-24T07:04:00.620Z,5.30
2023-02-24T07:06:29.433Z,5.40
2023-02-24T07:08:58.572Z,5.20
2023-02-24T07:11:28.264Z,4.80
2023-02-24T07:13:57.413Z,5.00
2023-02-24T07:16:25.213Z,5.00
2023-02-24T07:18:56.795Z,5.20
2023-02-24T07:21:30.085Z,5.50
2023-02-24T07:23:59.070Z,5.70
2023-02-24T07:26:27.720Z,5.80
2023-02-24T07:28:55.030Z,6.00
2023-02-24T07:31:24.711Z,6.10
2023-02-24T07:33:57.199Z,6.10
2023-02-24T07:36:24.837Z,6.00
2023-02-24T07:38:53.365Z,6.10
2023-02-24T07:41:22.560Z,6.10
2023-02-24T07:43:51.821Z,6.30
2023-02-24T07:46:24.456Z,6.40
2023-02-24T07:48:52.570Z,6.40
2023-02-24T07:51:23.110Z,6.50
2023-02-24T07:53:52.941Z,6.60
2023-02-24T07:56:26.823Z,6.70
2023-02-24T07:59:19.365Z,6.80
2023-02-24T08:01:55.248Z,6.90
2023-02-24T08:04:32.894Z,7.20
2023-02-24T08:07:03.094Z,7.90
2023-02-24T08:09:44.765Z,8.80
2023-02-24T08:12:17.877Z,9.70
2023-02-24T08:14:50.727Z,10.70
2023-02-24T08:17:23.504Z,11.20
2023-02-24T08:20:12.019Z,11.50
2023-02-24T08:22:51.978Z,11.00
2023-02-24T08:25:25.781Z,11.10
2023-02-24T08:28:12.119Z,11.80
2023-02-24T08:30:40.845Z,12.60
2023-02-24T08:33:10.411Z,13.50
2023-02-24T08:35:39.087Z,14.30
2023-02-24T08:38:09.799Z,15.20
2023-02-24T08:40:50.630Z,15.70
2023-02-24T08:43:31.125Z,15.40
2023-02-24T08:46:03.576Z,14.50
2023-02-24T08:48:37.417Z,13.40
2023-02-24T08:51:11.352Z,13.10
2023-02-24T08:53:40.865Z,13.20
2023-02-24T08:56:11.494Z,13.20
2023-02-24T08:58:48.517Z,13.20
2023-02-24T09:01:24.153Z,13.10
2023-02-24T09:03:57.284Z,12.80
2023-02-24T09:06:35.960Z,12.80
2023-02-24T09:09:17.825Z,13.20
2023-02-24T09:11:49.323Z,13.40
2023-02-24T09:14:27.285Z,14.00
2023-02-24T09:17:11.133Z,14.10
2023-02-24T09:19:52.121Z,13.60
2023-02-24T09:22:57.689Z,13.10
2023-02-24T09:25:25.981Z,12.70
2023-02-24T09:28:07.890Z,12.50
2023-02-24T09:30:38.661Z,12.40
2023-02-24T09:33:17.700Z,12.50
2023-02-24T09:36:09.487Z,12.70
2023-02-24T09:39:01.893Z,12.70
2023-02-24T09:42:17.817Z,12.60
2023-02-24T09:44:49.095Z,12.20
2023-02-24T09:47:51.102Z,12.60
2023-02-24T09:50:40.706Z,12.90
2023-02-24T09:53:17.858Z,12.70
2023-02-24T09:56:06.361Z,13.20
2023-02-24T09:58:44.151Z,13.70
2023-02-24T10:01:33.577Z,14.30
2023-02-24T10:04:20.854Z,14.70
2023-02-24T10:06:50.773Z,15.10
2023-02-24T10:09:35.111Z,15.70
2023-02-24T10:12:06.402Z,16.20
2023-02-24T10:14:51.167Z,17.50
2023-02-24T10:17:22.896Z,18.90
2023-02-24T10:20:13.921Z,19.50
2023-02-24T10:22:50.313Z,19.30
2023-02-24T10:25:35.989Z,18.50
2023-02-24T10:28:15.053Z,17.60
2023-02-24T10:31:10.124Z,16.80
2023-02-24T10:33:45.092Z,16.40
2023-02-24T10:36:17.489Z,16.00
2023-02-24T10:38:45.876Z,15.90
2023-02-24T10:41:14.641Z,15.90
2023-02-24T10:43:53.844Z,15.80
2023-02-24T10:46:40.964Z,15.80
2023-02-24T10:49:16.212Z,16.30
2023-02-24T10:51:51.540Z,17.20
2023-02-24T10:55:04.862Z,17.80
2023-02-24T10:57:44.646Z,19.30
2023-02-24T11:00:30.926Z,21.10
2023-02-24T11:03:08.232Z,20.80
2023-02-24T11:05:56.371Z,19.50
2023-02-24T11:08:44.252Z,18.80
2023-02-24T11:11:29.736Z,18.00
2023-02-24T11:14:20.179Z,17.00
2023-02-24T11:17:17.343Z,16.00
2023-02-24T11:20:00.195Z,15.40
2023-02-24T11:22:39.507Z,15.20
2023-02-24T11:25:40.517Z,14.40
2023-02-24T11:28:39.238Z,14.10
2023-02-24T11:31:18.923Z,14.30
2023-02-24T11:34:12.020Z,14.30
2023-02-24T11:36:50.645Z,14.30
2023-02-24T11:39:53.188Z,14.00
2023-02-24T11:42:37.419Z,14.20
2023-02-24T11:45:19.435Z,14.50
2023-02-24T11:47:52.791Z,14.50
2023-02-24T11:50:36.893Z,14.40
2023-02-24T11:53:13.120Z,14.90
2023-02-24T11:55:47.364Z,15.40
2023-02-24T11:58:48.824Z,15.70
2023-02-24T12:01:48.159Z,16.60
2023-02-24T12:04:33.730Z,16.50
2023-02-24T12:07:00.274Z,16.30
2023-02-24T12:09:33.809Z,15.90
2023-02-24T12:12:24.819Z,15.60
2023-02-24T12:14:59.379Z,15.70
2023-02-24T12:17:34.106Z,15.60
2023-02-24T12:20:21.387Z,15.30
2023-02-24T12:22:57.944Z,15.20
2023-02-24T12:26:06.088Z,15.60
2023-02-24T12:29:00.300Z,16.10
2023-02-24T12:31:53.478Z,16.20
2023-02-24T12:34:57.229Z,16.70
2023-02-24T12:37:38.715Z,17.40
2023-02-24T12:40:17.431Z,18.10
2023-02-24T12:43:02.064Z,18.60
2023-02-24T12:45:39.185Z,19.00
2023-02-24T12:48:56.359Z,19.20
2023-02-24T12:51:33.692Z,19.70
2023-02-24T12:54:22.742Z,20.40
2023-02-24T12:57:04.378Z,20.60
2023-02-24T12:59:37.989Z,21.00
2023-02-24T13:02:12.463Z,21.30
2023-02-24T13:05:01.235Z,21.50
2023-02-24T13:07:39.863Z,21.70
2023-02-24T13:10:24.903Z,21.80
2023-02-24T13:13:07.430Z,21.80
2023-02-24T13:15:34.021Z,21.80
2023-02-24T13:18:01.043Z,21.50
2023-02-24T13:20:38.391Z,21.80
2023-02-24T13:23:20.970Z,22.00
2023-02-24T13:25:55.680Z,21.90
2023-02-24T13:28:24.475Z,21.80
2023-02-24T13:31:07.095Z,20.60
2023-02-24T13:33:43.454Z,20.60
2023-02-24T13:36:25.066Z,20.80
2023-02-24T13:39:07.192Z,20.30
2023-02-24T13:41:37.202Z,19.90
2023-02-24T13:44:19.800Z,19.50
2023-02-24T13:46:55.404Z,19.60
2023-02-24T13:49:46.613Z,20.10
2023-02-24T13:52:25.944Z,20.50
2023-02-24T13:55:20.067Z,20.00
2023-02-24T13:58:07.799Z,19.20
2023-02-24T14:00:50.866Z,19.30
2023-02-24T14:03:24.200Z,19.30
2023-02-24T14:05:51.559Z,18.90
2023-02-24T14:08:35.766Z,18.20
2023-02-24T14:11:03.923Z,17.80
2023-02-24T14:13:34.249Z,17.60
2023-02-24T14:16:07.168Z,17.50
2023-02-24T14:18:33.880Z,17.30
2023-02-24T14:21:00.557Z,17.40
2023-02-24T14:23:34.916Z,17.80
2023-02-24T14:26:13.782Z,17.90
2023-02-24T14:28:42.408Z,18.00
2023-02-24T14:31:16.265Z,17.60
2023-02-24T14:33:45.183Z,17.80
2023-02-24T14:36:18.432Z,17.80
2023-02-24T14:38:45.412Z,17.50
2023-02-24T14:41:24.624Z,16.90
2023-02-24T14:43:52.355Z,16.60
2023-02-24T14:46:19.672Z,16.50
2023-02-24T14:48:52.141Z,16.10
2023-02-24T14:51:49.565Z,15.70
2023-02-24T14:54:22.402Z,15.70
2023-02-24T14:56:49.345Z,15.40
2023-02-24T14:59:25.076Z,14.90
2023-02-24T15:01:54.848Z,14.50
2023-02-24T15:04:43.617Z,14.30
2023-02-24T15:07:21.388Z,14.10
2023-02-24T15:09:50.578Z,14.00
2023-02-24T15:12:31.873Z,14.00
2023-02-24T15:15:13.300Z,14.00
2023-02-24T15:17:41.408Z,13.70
2023-02-24T15:20:32.014Z,13.60
2023-02-24T15:22:59.083Z,13.70
2023-02-24T15:25:37.098Z,13.50
2023-02-24T15:28:21.520Z,13.70
2023-02-24T15:31:00.245Z,13.60
2023-02-24T15:33:32.779Z,13.70
2023-02-24T15:36:00.185Z,13.80
2023-02-24T15:38:34.370Z,13.60
2023-02-24T15:41:03.615Z,13.90
2023-02-24T15:43:47.791Z,13.90
2023-02-24T15:46:28.828Z,14.10
2023-02-24T15:48:57.358Z,14.30
2023-02-24T15:51:39.180Z,14.40
2023-02-24T15:54:29.059Z,14.50
2023-02-24T15:56:59.226Z,14.40
2023-02-24T15:59:26.342Z,14.40
2023-02-24T16:01:53.002Z,14.20
2023-02-24T16:04:21.700Z,14.20
2023-02-24T16:06:54.791Z,14.20
2023-02-24T16:09:33.344Z,14.30
2023-02-24T16:12:02.208Z,14.30
2023-02-24T16:14:28.897Z,14.30
2023-02-24T16:16:55.609Z,14.20
2023-02-24T16:19:22.231Z,14.10
2023-02-24T16:21:48.931Z,14.10
2023-02-24T16:24:15.541Z,14.10
2023-02-24T16:26:42.274Z,14.10
2023-02-24T16:29:14.057Z,14.10
2023-02-24T16:31:41.622Z,13.60
2023-02-24T16:34:08.601Z,13.30
2023-02-24T16:36:35.870Z,13.30
2023-02-24T16:39:05.081Z,13.20
2023-02-24T16:41:31.784Z,13.00
2023-02-24T16:43:58.422Z,12.90
2023-02-24T16:46:28.745Z,12.90
2023-02-24T16:48:55.390Z,12.60
2023-02-24T16:51:22.122Z,12.50
2023-02-24T16:53:48.706Z,12.50
2023-02-24T16:56:15.633Z,12.50
2023-02-24T16:58:42.640Z,12.50
2023-02-24T17:01:18.788Z,12.40
2023-02-24T17:03:50.628Z,12.40
2023-02-24T17:06:17.591Z,12.40
2023-02-24T17:08:46.107Z,12.30
2023-02-24T17:11:16.323Z,12.30
2023-02-24T17:13:43.629Z,12.30
2023-02-24T17:16:10.998Z,12.20
2023-02-24T17:18:37.741Z,12.00
2023-02-24T17:21:05.249Z,12.30
2023-02-24T17:23:32.411Z,12.20
2023-02-24T17:26:01.474Z,12.20
2023-02-24T17:28:28.372Z,12.20
2023-02-24T17:30:55.334Z,12.10
2023-02-24T17:33:22.144Z,11.90
2023-02-24T17:35:49.129Z,12.00
2023-02-24T17:38:18.140Z,12.20
2023-02-24T17:40:45.843Z,12.00
2023-02-24T17:43:12.758Z,12.30
2023-02-24T17:45:45.791Z,12.30
2023-02-24T17:48:14.840Z,12.40
2023-02-24T17:50:42.769Z,12.20
2023-02-24T17:53:09.513Z,12.00
2023-02-24T17:55:36.358Z,12.10
2023-02-24T17:58:02.985Z,12.20
2023-02-24T18:00:29.644Z,12.20
2023-02-24T18:02:56.404Z,12.10
2023-02-24T18:05:23.159Z,12.10
2023-02-24T18:07:49.782Z,12.30
2023-02-24T18:10:16.677Z,12.50
2023-02-24T18:12:43.359Z,12.60
2023-02-24T18:15:10.818Z,12.00
2023-02-24T18:17:38.380Z,11.80
2023-02-24T18:20:06.628Z,11.60
2023-02-24T18:22:33.311Z,11.50
2023-02-24T18:25:00.900Z,11.50
2023-02-24T18:27:27.821Z,11.40
2023-02-24T18:29:54.638Z,11.60
2023-02-24T18:32:21.810Z,11.50
2023-02-24T18:34:48.621Z,11.50
2023-02-24T18:37:15.270Z,11.50
2023-02-24T18:39:41.903Z,11.40
2023-02-24T18:42:08.674Z,11.40
2023-02-24T18:44:35.314Z,11.40
2023-02-24T18:47:02.666Z,11.40
2023-02-24T18:49:29.336Z,11.50
2023-02-24T18:51:56.258Z,11.70
2023-02-24T18:54:22.908Z,11.80
2023-02-24T18:56:49.949Z,11.80
2023-02-24T18:59:16.575Z,11.70
2023-02-24T19:01:43.297Z,11.80
2023-02-24T19:04:11.538Z,12.00
2023-02-24T19:06:42.142Z,11.90
2023-02-24T19:09:11.116Z,12.00
2023-02-24T19:11:38.859Z,12.30
2023-02-24T19:14:06.268Z,12.40
2023-02-24T19:16:33.492Z,12.40
2023-02-24T19:19:00.350Z,12.40
2023-02-24T19:21:28.688Z,12.30
2023-02-24T19:23:55.401Z,12.20
2023-02-24T19:26:25.117Z,12.20
2023-02-24T19:28:52.535Z,12.00
2023-02-24T19:31:25.665Z,12.00
2023-02-24T19:33:54.390Z,12.00
2023-02-24T19:36:21.897Z,12.00
2023-02-24T19:38:49.325Z,11.90
2023-02-24T19:41:16.065Z,11.90
2023-02-24T19:43:43.368Z,11.60
2023-02-24T19:46:12.342Z,11.40
2023-02-24T19:48:39.292Z,11.30
2023-02-24T19:51:21.944Z,11.30
2023-02-24T19:53:52.447Z,11.50
2023-02-24T19:56:26.516Z,11.50
2023-02-24T19:58:54.767Z,11.60
2023-02-24T20:01:22.062Z,11.50
2023-02-24T20:03:49.046Z,11.40
2023-02-24T20:06:30.333Z,11.30
2023-02-24T20:08:57.985Z,11.40
2023-02-24T20:11:25.294Z,11.50
2023-02-24T20:13:53.059Z,11.60
2023-02-24T20:16:23.721Z,11.60
2023-02-24T20:18:50.916Z,11.70
2023-02-24T20:21:17.562Z,11.70
2023-02-24T20:23:44.803Z,11.20
2023-02-24T20:26:16.392Z,10.90
2023-02-24T20:28:45.072Z,11.10
2023-02-24T20:31:15.162Z,11.40
2023-02-24T20:33:43.483Z,11.40
2023-02-24T20:36:16.947Z,11.50
2023-02-24T20:38:43.749Z,11.60
2023-02-24T20:41:10.583Z,11.50
2023-02-24T20:43:37.615Z,11.50
2023-02-24T20:46:16.748Z,11.10
2023-02-24T20:48:44.361Z,11.00
2023-02-24T20:51:15.297Z,11.00
2023-02-24T20:53:56.017Z,11.00
2023-02-24T20:56:25.751Z,10.90
2023-02-24T20:59:04.679Z,10.80
2023-02-24T21:01:33.251Z,10.70
2023-02-24T21:04:00.282Z,10.40
2023-02-24T21:06:27.671Z,10.40
2023-02-24T21:08:54.470Z,10.70
2023-02-24T21:11:21.847Z,11.00
2023-02-24T21:13:50.133Z,10.80
2023-02-24T21:16:17.978Z,10.80
2023-02-24T21:18:46.985Z,10.80
2023-02-24T21:21:15.253Z,11.00
2023-02-24T21:23:43.130Z,11.10
2023-02-24T21:26:10.337Z,11.00
2023-02-24T21:28:37.492Z,10.70
2023-02-24T21:31:09.777Z,10.40
2023-02-24T21:33:36.911Z,10.20
2023-02-24T21:36:06.704Z,10.00
2023-02-24T21:38:34.418Z,10.20
2023-02-24T21:41:07.117Z,10.50
2023-02-24T21:43:33.947Z,10.60
2023-02-24T21:46:02.172Z,10.50
2023-02-24T21:48:28.819Z,10.60
2023-02-24T21:51:04.051Z,10.50
2023-02-24T21:53:35.399Z,10.50
2023-02-24T21:56:11.281Z,10.60
2023-02-24T21:58:39.271Z,10.60
2023-02-24T22:01:20.823Z,10.60
2023-02-24T22:03:47.696Z,10.50
2023-02-24T22:06:17.567Z,10.40
2023-02-24T22:08:45.279Z,10.40
2023-02-24T22:11:14.819Z,10.40
2023-02-24T22:13:42.693Z,10.20
2023-02-24T22:16:12.724Z,10.10
2023-02-24T22:18:40.043Z,10.00
2023-02-24T22:21:12.417Z,10.00
2023-02-24T22:23:39.543Z,10.00
2023-02-24T22:26:08.503Z,9.90
2023-02-24T22:28:38.898Z,9.80
2023-02-24T22:31:07.181Z,9.60
2023-02-24T22:33:36.320Z,9.40
2023-02-24T22:36:05.754Z,9.10
2023-02-24T22:38:33.455Z,8.90
2023-02-24T22:41:01.448Z,8.90
2023-02-24T22:43:29.290Z,8.80
2023-02-24T22:46:00.771Z,8.80
2023-02-24T22:48:28.794Z,8.80
2023-02-24T22:50:56.926Z,8.80
2023-02-24T22:53:27.729Z,8.80
2023-02-24T22:55:54.594Z,8.60
2023-02-24T22:58:21.846Z,8.40
2023-02-24T23:00:48.836Z,8.20
2023-02-24T23:03:25.137Z,8.30
2023-02-24T23:06:00.048Z,8.40
2023-02-24T23:08:28.418Z,8.40
2023-02-24T23:10:55.847Z,8.50
2023-02-24T23:13:22.517Z,8.50
2023-02-24T23:15:49.412Z,8.60
2023-02-24T23:18:16.584Z,8.60
2023-02-24T23:20:44.880Z,8.60
2023-02-24T23:23:11.850Z,8.50
2023-02-24T23:25:38.743Z,8.50
2023-02-24T23:28:06.398Z,8.40
2023-02-24T23:30:33.290Z,8.30
2023-02-24T23:33:00.998Z,8.20
2023-02-24T23:35:27.683Z,8.10
2023-02-24T23:37:54.329Z,8.00
2023-02-24T23:40:25.799Z,8.00
2023-02-24T23:42:53.205Z,8.00
2023-02-24T23:45:20.106Z,7.70
2023-02-24T23:47:46.896Z,7.60
2023-02-24T23:50:13.545Z,7.20
2023-02-24T23:52:40.202Z,7.00
2023-02-24T23:55:07.114Z,6.90
2023-02-24T23:57:34.212Z,6.80
